createdAt,value
2023-03-27T00:02:11.886Z,98922.61
2023-03-27T00:07:13.538Z,98926.40
2023-03-27T00:12:15.418Z,98928.07
2023-03-27T00:17:17.429Z,98928.30
2023-03-27T00:22:19.077Z,98932.16
2023-03-27T00:27:20.979Z,98923.33
2023-03-27T00:32:22.473Z,98919.67
2023-03-27T00:37:24.011Z,98910.79
2023-03-27T00:42:25.495Z,98903.02
2023-03-27T00:47:33.972Z,98897.86
2023-03-27T00:52:37.239Z,98900.27
2023-03-27T00:57:39.152Z,98897.70
2023-03-27T01:02:42.795Z,98892.73
2023-03-27T01:08:00.512Z,98893.80
2023-03-27T01:13:44.332Z,98900.34
2023-03-27T01:19:05.129Z,98895.95
2023-03-27T01:25:03.681Z,98900.37
2023-03-27T01:30:26.160Z,98905.08
2023-03-27T01:35:30.517Z,98903.64
2023-03-27T01:40:56.228Z,98897.33
2023-03-27T01:46:08.706Z,98903.14
2023-03-27T01:51:30.427Z,98908.08
2023-03-27T01:56:38.181Z,98908.08
2023-03-27T02:01:46.630Z,98900.45
2023-03-27T02:06:55.392Z,98905.94
2023-03-27T02:12:20.227Z,98907.67
2023-03-27T02:17:26.416Z,98909.30
2023-03-27T02:22:37.434Z,98901.04
2023-03-27T02:27:47.779Z,98902.95
2023-03-27T02:33:04.210Z,98905.08
2023-03-27T02:38:09.248Z,98901.68
2023-03-27T02:43:43.209Z,98902.66
2023-03-27T02:48:54.872Z,98893.33
2023-03-27T02:54:02.808Z,98891.54
2023-03-27T02:59:10.201Z,98895.45
2023-03-27T03:04:41.940Z,98895.50
2023-03-27T03:09:44.611Z,98900.23
2023-03-27T03:14:46.551Z,98890.41
2023-03-27T03:19:49.466Z,98879.22
2023-03-27T03:24:51.021Z,98881.57
2023-03-27T03:29:53.191Z,98879.02
2023-03-27T03:34:56.908Z,98879.70
2023-03-27T03:39:58.414Z,98885.16
2023-03-27T03:44:59.959Z,98879.64
2023-03-27T03:50:01.641Z,98884.73
2023-03-27T03:55:04.662Z,98881.84
2023-03-27T04:00:12.296Z,98883.57
2023-03-27T04:05:13.787Z,98891.20
2023-03-27T04:10:16.261Z,98897.80
2023-03-27T04:15:18.266Z,98903.80
2023-03-27T04:20:20.242Z,98907.55
2023-03-27T04:25:24.565Z,98915.38
2023-03-27T04:30:27.733Z,98926.27
2023-03-27T04:35:29.878Z,98937.09
2023-03-27T04:40:31.377Z,98942.98
2023-03-27T04:45:33.692Z,98941.97
2023-03-27T04:50:36.012Z,98936.42
2023-03-27T04:55:40.575Z,98935.36
2023-03-27T05:00:42.457Z,98940.36
2023-03-27T05:05:43.921Z,98944.86
2023-03-27T05:10:46.768Z,98942.04
2023-03-27T05:15:48.375Z,98940.81
2023-03-27T05:20:50.229Z,98938.86
2023-03-27T05:25:59.897Z,98939.69
2023-03-27T05:31:02.524Z,98940.14
2023-03-27T05:36:06.037Z,98944.41
2023-03-27T05:41:07.889Z,98950.20
2023-03-27T05:46:09.466Z,98960.92
2023-03-27T05:51:11.254Z,98953.96
2023-03-27T05:56:13.323Z,98947.58
2023-03-27T06:01:14.954Z,98955.64
2023-03-27T06:06:16.767Z,98966.44
2023-03-27T06:11:18.273Z,98963.45
2023-03-27T06:16:23.269Z,98969.02
2023-03-27T06:21:25.365Z,98977.05
2023-03-27T06:26:28.368Z,98991.50
2023-03-27T06:31:30.165Z,98993.58
2023-03-27T06:36:33.240Z,99000.40
2023-03-27T06:41:34.771Z,99001.93
2023-03-27T06:46:45.084Z,99004.88
2023-03-27T06:51:47.422Z,99002.98
2023-03-27T06:56:48.975Z,99001.74
2023-03-27T07:01:53.836Z,99004.88
2023-03-27T07:06:55.955Z,99006.33
2023-03-27T07:11:57.440Z,99014.80
2023-03-27T07:16:59.249Z,99017.38
2023-03-27T07:22:00.975Z,99024.84
2023-03-27T07:27:02.486Z,99026.35
2023-03-27T07:32:08.613Z,99034.38
2023-03-27T07:37:11.462Z,99041.16
2023-03-27T07:42:13.009Z,99049.55
2023-03-27T07:47:14.773Z,99053.17
2023-03-27T07:52:16.747Z,99055.07
2023-03-27T07:57:18.417Z,99056.59
2023-03-27T08:02:20.303Z,99061.63
2023-03-27T08:07:23.154Z,99065.84
2023-03-27T08:12:25.390Z,99072.44
2023-03-27T08:17:27.970Z,99080.68
2023-03-27T08:22:29.643Z,99092.31
2023-03-27T08:27:32.178Z,99099.26
2023-03-27T08:32:33.816Z,99102.02
2023-03-27T08:37:35.774Z,99099.91
2023-03-27T08:42:42.273Z,99099.87
2023-03-27T08:47:50.718Z,99101.41
2023-03-27T08:52:52.481Z,99106.38
2023-03-27T08:57:54.970Z,99108.66
2023-03-27T09:03:10.782Z,99107.05
2023-03-27T09:08:27.852Z,99104.92
2023-03-27T09:13:38.262Z,99104.02
2023-03-27T09:18:52.014Z,99102.39
2023-03-27T09:23:59.295Z,99109.27
2023-03-27T09:29:03.842Z,99115.17
2023-03-27T09:34:08.136Z,99128.51
2023-03-27T09:39:17.222Z,99136.52
2023-03-27T09:44:25.428Z,99146.14
2023-03-27T09:49:27.848Z,99156.95
2023-03-27T09:54:29.728Z,99155.67
2023-03-27T09:59:34.973Z,99154.04
2023-03-27T10:04:36.746Z,99167.88
2023-03-27T10:09:40.624Z,99168.86
2023-03-27T10:14:50.543Z,99168.03
2023-03-27T10:20:24.336Z,99169.95
2023-03-27T10:25:28.849Z,99179.52
2023-03-27T10:30:38.738Z,99184.82
2023-03-27T10:35:44.153Z,99188.81
2023-03-27T10:40:50.729Z,99185.82
2023-03-27T10:45:56.302Z,99195.80
2023-03-27T10:51:04.052Z,99194.79
2023-03-27T10:56:11.814Z,99202.48
2023-03-27T11:01:35.390Z,99199.55
2023-03-27T11:06:42.090Z,99209.83
2023-03-27T11:11:57.920Z,99216.95
2023-03-27T11:17:05.268Z,99221.35
2023-03-27T11:22:32.226Z,99222.02
2023-03-27T11:27:43.212Z,99221.98
2023-03-27T11:32:54.291Z,99227.05
2023-03-27T11:38:17.382Z,99230.41
2023-03-27T11:43:20.509Z,99237.47
2023-03-27T11:48:56.866Z,99233.23
2023-03-27T11:54:01.728Z,99238.36
2023-03-27T11:59:18.258Z,99232.71
2023-03-27T12:04:29.023Z,99238.27
2023-03-27T12:09:40.603Z,99237.27
2023-03-27T12:14:48.288Z,99234.99
2023-03-27T12:19:59.157Z,99247.58
2023-03-27T12:25:38.496Z,99243.42
2023-03-27T12:30:57.769Z,99247.09
2023-03-27T12:36:05.782Z,99250.20
2023-03-27T12:41:26.101Z,99254.97
2023-03-27T12:46:33.413Z,99256.66
2023-03-27T12:52:02.856Z,99258.13
2023-03-27T12:57:21.246Z,99266.94
2023-03-27T13:02:35.830Z,99266.13
2023-03-27T13:08:04.729Z,99270.42
2023-03-27T13:13:19.535Z,99277.23
2023-03-27T13:18:52.279Z,99277.10
2023-03-27T13:24:02.806Z,99280.36
2023-03-27T13:29:15.957Z,99291.00
2023-03-27T13:34:32.729Z,99292.34
2023-03-27T13:40:19.867Z,99289.39
2023-03-27T13:45:47.158Z,99290.89
2023-03-27T13:51:01.908Z,99304.01
2023-03-27T13:56:12.169Z,99318.30
2023-03-27T14:01:17.162Z,99323.89
2023-03-27T14:06:54.652Z,99335.55
2023-03-27T14:12:19.730Z,99344.31
2023-03-27T14:17:40.613Z,99355.72
2023-03-27T14:22:54.609Z,99362.70
2023-03-27T14:27:56.436Z,99363.09
2023-03-27T14:33:06.768Z,99368.31
2023-03-27T14:38:24.891Z,99381.14
2023-03-27T14:43:28.999Z,99381.39
2023-03-27T14:48:31.066Z,99388.27
2023-03-27T14:53:36.719Z,99398.53
2023-03-27T14:58:46.601Z,99412.15
2023-03-27T15:03:51.734Z,99413.35
2023-03-27T15:08:56.286Z,99418.77
2023-03-27T15:13:57.774Z,99426.78
2023-03-27T15:19:04.950Z,99446.39
2023-03-27T15:24:13.520Z,99468.37
2023-03-27T15:29:29.072Z,99484.11
2023-03-27T15:34:36.430Z,99488.47
2023-03-27T15:40:52.660Z,99493.10
2023-03-27T15:45:59.013Z,99494.63
2023-03-27T15:51:21.083Z,99505.36
2023-03-27T15:56:42.887Z,99519.19
2023-03-27T16:02:06.961Z,99534.88
2023-03-27T16:07:14.052Z,99535.63
2023-03-27T16:12:18.411Z,99545.64
2023-03-27T16:17:32.578Z,99561.54
2023-03-27T16:22:37.417Z,99573.58
2023-03-27T16:27:50.271Z,99594.70
2023-03-27T16:32:51.764Z,99603.46
2023-03-27T16:37:54.702Z,99626.84
2023-03-27T16:42:56.367Z,99637.23
2023-03-27T16:47:58.040Z,99649.98
2023-03-27T16:52:59.660Z,99661.40
2023-03-27T16:58:03.326Z,99663.64
2023-03-27T17:03:05.122Z,99665.85
2023-03-27T17:08:07.501Z,99681.48
2023-03-27T17:13:09.392Z,99686.41
2023-03-27T17:18:11.182Z,99699.19
2023-03-27T17:23:12.921Z,99706.52
2023-03-27T17:28:14.849Z,99704.49
2023-03-27T17:33:17.472Z,99710.44
2023-03-27T17:38:20.888Z,99717.27
2023-03-27T17:43:22.394Z,99730.67
2023-03-27T17:48:23.988Z,99741.73
2023-03-27T17:53:27.479Z,99751.75
2023-03-27T17:58:29.150Z,99758.90
2023-03-27T18:03:30.952Z,99770.63
2023-03-27T18:08:32.950Z,99784.89
2023-03-27T18:13:34.719Z,99785.92
2023-03-27T18:18:39.828Z,99792.71
2023-03-27T18:23:46.008Z,99798.98
2023-03-27T18:28:48.554Z,99807.80
2023-03-27T18:33:50.381Z,99811.35
2023-03-27T18:38:52.234Z,99808.83
2023-03-27T18:43:54.140Z,99812.72
2023-03-27T18:48:55.856Z,99821.04
2023-03-27T18:53:58.293Z,99820.19
2023-03-27T18:58:59.894Z,99826.12
2023-03-27T19:04:03.945Z,99825.78
2023-03-27T19:09:05.594Z,99835.43
2023-03-27T19:14:08.004Z,99850.84
2023-03-27T19:19:09.793Z,99841.98
2023-03-27T19:24:11.353Z,99845.84
2023-03-27T19:29:12.849Z,99851.42
2023-03-27T19:34:14.372Z,99851.89
2023-03-27T19:39:16.065Z,99857.14
2023-03-27T19:44:19.877Z,99863.90
2023-03-27T19:49:21.405Z,99870.79
2023-03-27T19:54:22.918Z,99874.32
2023-03-27T19:59:30.482Z,99878.35
2023-03-27T20:04:32.484Z,99889.34
2023-03-27T20:09:34.603Z,99896.74
2023-03-27T20:14:36.541Z,99898.90
2023-03-27T20:19:38.123Z,99905.80
2023-03-27T20:24:40.328Z,99903.37
2023-03-27T20:29:41.905Z,99919.68
2023-03-27T20:34:46.420Z,99914.88
2023-03-27T20:39:47.946Z,99919.23
2023-03-27T20:44:55.175Z,99916.27
2023-03-27T20:49:59.100Z,99915.70
2023-03-27T20:55:00.985Z,99919.17
2023-03-27T21:00:07.158Z,99921.80
2023-03-27T21:05:08.895Z,99916.46
2023-03-27T21:10:11.213Z,99916.23
2023-03-27T21:15:13.879Z,99914.29
2023-03-27T21:20:15.912Z,99915.20
2023-03-27T21:25:17.656Z,99923.11
2023-03-27T21:30:19.188Z,99929.12
2023-03-27T21:35:21.079Z,99934.92
2023-03-27T21:40:22.698Z,99933.81
2023-03-27T21:45:24.184Z,99928.32
2023-03-27T21:50:26.009Z,99925.35
2023-03-27T21:55:27.716Z,99923.03
2023-03-27T22:00:29.261Z,99919.81
2023-03-27T22:05:30.791Z,99923.95
2023-03-27T22:10:34.383Z,99931.84
2023-03-27T22:15:36.326Z,99931.43
2023-03-27T22:20:37.933Z,99934.75
2023-03-27T22:25:39.450Z,99944.50
2023-03-27T22:30:41.775Z,99942.91
2023-03-27T22:35:49.689Z,99949.73
2023-03-27T22:40:51.363Z,99947.50
2023-03-27T22:45:52.856Z,99944.19
2023-03-27T22:50:56.509Z,99942.45
2023-03-27T22:55:59.691Z,99941.37
2023-03-27T23:01:02.890Z,99941.98
2023-03-27T23:06:04.693Z,99942.24
2023-03-27T23:11:06.759Z,99942.59
2023-03-27T23:16:09.757Z,99945.63
2023-03-27T23:21:13.998Z,99949.33
2023-03-27T23:26:16.187Z,99958.13
2023-03-27T23:31:20.087Z,99964.52
2023-03-27T23:36:23.875Z,99968.83
2023-03-27T23:41:25.461Z,99972.08
2023-03-27T23:46:27.228Z,99975.06
2023-03-27T23:51:28.858Z,99979.39
2023-03-27T23:56:30.457Z,99983.73
